Celik 1 — 9HKY9 — position and weather

sailwx.info

Track history (hours):
 
Tides and Currents Weather Stations Pressure Air Temp Water Temp Dewpoint Dewpoint Depression Visibility Wind Speed Wind Dir Waves Ship Positions

Celik 1

Last reported at 2014-Oct-24 04:32 UTC. Time now 2014-Oct-31 17:58 UTC.
Position N 40°56' E 028°59'.

Length 121 m; draft 4.7 m.

Type: Cargo ship. MMSI: 249114000.

Date/timePositionNaut miles runAvg speedWind from/ knotsBaromVisibWave heightAir tempDewpointWater temp
2014-Oct-24 04:32N 40°56' E 028°59'3 0.8
2014-Oct-24 00:28N 40°59' E 028°56'0 0.0
2014-Oct-23 20:22N 40°59' E 028°56'0 0.0
2014-Oct-23 19:28N 40°59' E 028°56'0 0.0
2014-Oct-23 18:16N 40°59' E 028°56'0 0.0
2014-Oct-23 17:04N 40°59' E 028°56'0 0.1
2014-Oct-23 16:28N 40°59' E 028°56'0 0.0
2014-Oct-23 15:28N 40°59' E 028°56'0 0.0
2014-Oct-23 14:22N 40°59' E 028°56'0 0.0
2014-Oct-23 13:16N 40°59' E 028°56'0 0.0
2014-Oct-23 12:10N 40°59' E 028°56'0 0.0
2014-Oct-23 11:22N 40°59' E 028°56'0 0.0
2014-Oct-23 10:16N 40°59' E 028°56'0 0.0
2014-Oct-23 09:28N 40°59' E 028°56'0 0.0
2014-Oct-23 07:28N 40°59' E 028°56'0 0.0
2014-Oct-23 06:34N 40°59' E 028°56'0 0.0
2014-Oct-23 05:28N 40°59' E 028°56'0 0.0
2014-Oct-23 04:10N 40°59' E 028°56'0 0.0
2014-Oct-23 03:22N 40°59' E 028°56'0 0.0
2014-Oct-23 02:28N 40°59' E 028°56'0 0.0
2014-Oct-23 01:28N 40°59' E 028°56'0 0.0
2014-Oct-23 00:28N 40°59' E 028°56'0 0.0
2014-Oct-22 23:28N 40°59' E 028°56'0 0.0
2014-Oct-22 22:34N 40°59' E 028°56'0 0.0
2014-Oct-22 21:34N 40°59' E 028°56'0 0.0
2014-Oct-22 20:28N 40°59' E 028°56'0 0.0
2014-Oct-22 19:28N 40°59' E 028°56'0 0.0
2014-Oct-22 18:28N 40°59' E 028°56'0 0.0
2014-Oct-22 17:34N 40°59' E 028°56'0 0.0
2014-Oct-22 16:34N 40°59' E 028°56'0 0.0
2014-Oct-22 15:04N 40°59' E 028°56'0 0.0
2014-Oct-22 14:16N 40°58' E 028°56'0 0.0
2014-Oct-22 13:34N 40°59' E 028°56'0 0.0
2014-Oct-22 12:22N 40°59' E 028°56'0 0.0
2014-Oct-22 07:34N 40°59' E 028°56'0 0.0
2014-Oct-22 04:16N 40°59' E 028°56'0 0.0
2014-Oct-22 02:22N 40°59' E 028°56'0 0.0
2014-Oct-22 01:28N 40°59' E 028°56'0 0.0
2014-Oct-22 00:34N 40°59' E 028°56'0 0.0
2014-Oct-21 23:34N 40°59' E 028°56'0 0.3
2014-Oct-21 22:34N 40°58' E 028°56'7 7.3
2014-Oct-21 21:34N 40°52' E 028°52'1110.9
2014-Oct-21 20:33N 40°50' E 028°37'1111.0
2014-Oct-21 19:34N 40°48' E 028°23'1111.1
2014-Oct-21 18:34N 40°47' E 028°09'1110.7
2014-Oct-21 17:33N 40°45' E 027°54'4310.8
2014-Oct-21 13:32N 40°31' E 027°01'1210.5
2014-Oct-21 12:25N 40°26' E 026°47'10 9.7
2014-Oct-21 11:22N 40°19' E 026°37'12 9.7
2014-Oct-21 10:10N 40°12' E 026°24'13 8.2
2014-Oct-21 08:34N 40°01' E 026°14'8 7.9
2014-Oct-21 07:33N 39°56' E 026°07'10 9.7
2014-Oct-21 06:34N 39°46' E 026°05'8 8.1
2014-Oct-21 05:33N 39°40' E 025°57'6 5.7
2014-Oct-21 04:33N 39°35' E 025°57'1 1.4
2014-Oct-21 03:33N 39°34' E 025°59'9 8.6
2014-Oct-21 02:31N 39°25' E 025°60'83 6.3
2014-Oct-20 13:18N 38°04' E 026°19'18 9.8
2014-Oct-20 11:31N 37°48' E 026°29'10 9.9
2014-Oct-20 10:33N 37°39' E 026°34'9 8.6
2014-Oct-20 09:29N 37°31' E 026°40'10 9.8
2014-Oct-20 08:28N 37°23' E 026°47'12 8.6
2014-Oct-20 07:04N 37°13' E 026°55'296 8.3
2014-Oct-18 19:22N 35°54' E 032°50'  
Track history (hours):
 
Tides and Currents Weather Stations Pressure Air Temp Water Temp Dewpoint Dewpoint Depression Visibility Wind Speed Wind Dir Waves Ship Positions

Celik 1

Last reported at 2014-Oct-24 04:32 UTC. Time now 2014-Oct-31 17:58 UTC.
Position N 40°56' E 028°59'.

Length 121 m; draft 4.7 m.

Type: Cargo ship. MMSI: 249114000.

Date/timePositionNaut miles runAvg speedWind from/ knotsBaromVisibWave heightAir tempDewpointWater temp
2014-Oct-24 04:32N 40°56' E 028°59'3 0.8
2014-Oct-24 00:28N 40°59' E 028°56'0 0.0
2014-Oct-23 20:22N 40°59' E 028°56'0 0.0
2014-Oct-23 19:28N 40°59' E 028°56'0 0.0
2014-Oct-23 18:16N 40°59' E 028°56'0 0.0
2014-Oct-23 17:04N 40°59' E 028°56'0 0.1
2014-Oct-23 16:28N 40°59' E 028°56'0 0.0
2014-Oct-23 15:28N 40°59' E 028°56'0 0.0
2014-Oct-23 14:22N 40°59' E 028°56'0 0.0
2014-Oct-23 13:16N 40°59' E 028°56'0 0.0
2014-Oct-23 12:10N 40°59' E 028°56'0 0.0
2014-Oct-23 11:22N 40°59' E 028°56'0 0.0
2014-Oct-23 10:16N 40°59' E 028°56'0 0.0
2014-Oct-23 09:28N 40°59' E 028°56'0 0.0
2014-Oct-23 07:28N 40°59' E 028°56'0 0.0
2014-Oct-23 06:34N 40°59' E 028°56'0 0.0
2014-Oct-23 05:28N 40°59' E 028°56'0 0.0
2014-Oct-23 04:10N 40°59' E 028°56'0 0.0
2014-Oct-23 03:22N 40°59' E 028°56'0 0.0
2014-Oct-23 02:28N 40°59' E 028°56'0 0.0
2014-Oct-23 01:28N 40°59' E 028°56'0 0.0
2014-Oct-23 00:28N 40°59' E 028°56'0 0.0
2014-Oct-22 23:28N 40°59' E 028°56'0 0.0
2014-Oct-22 22:34N 40°59' E 028°56'0 0.0
2014-Oct-22 21:34N 40°59' E 028°56'0 0.0
2014-Oct-22 20:28N 40°59' E 028°56'0 0.0
2014-Oct-22 19:28N 40°59' E 028°56'0 0.0
2014-Oct-22 18:28N 40°59' E 028°56'0 0.0
2014-Oct-22 17:34N 40°59' E 028°56'0 0.0
2014-Oct-22 16:34N 40°59' E 028°56'0 0.0
2014-Oct-22 15:04N 40°59' E 028°56'0 0.0
2014-Oct-22 14:16N 40°58' E 028°56'0 0.0
2014-Oct-22 13:34N 40°59' E 028°56'0 0.0
2014-Oct-22 12:22N 40°59' E 028°56'0 0.0
2014-Oct-22 07:34N 40°59' E 028°56'0 0.0
2014-Oct-22 04:16N 40°59' E 028°56'0 0.0
2014-Oct-22 02:22N 40°59' E 028°56'0 0.0
2014-Oct-22 01:28N 40°59' E 028°56'0 0.0
2014-Oct-22 00:34N 40°59' E 028°56'0 0.0
2014-Oct-21 23:34N 40°59' E 028°56'0 0.3
2014-Oct-21 22:34N 40°58' E 028°56'7 7.3
2014-Oct-21 21:34N 40°52' E 028°52'1110.9
2014-Oct-21 20:33N 40°50' E 028°37'1111.0
2014-Oct-21 19:34N 40°48' E 028°23'1111.1
2014-Oct-21 18:34N 40°47' E 028°09'1110.7
2014-Oct-21 17:33N 40°45' E 027°54'4310.8
2014-Oct-21 13:32N 40°31' E 027°01'1210.5
2014-Oct-21 12:25N 40°26' E 026°47'10 9.7
2014-Oct-21 11:22N 40°19' E 026°37'12 9.7
2014-Oct-21 10:10N 40°12' E 026°24'13 8.2
2014-Oct-21 08:34N 40°01' E 026°14'8 7.9
2014-Oct-21 07:33N 39°56' E 026°07'10 9.7
2014-Oct-21 06:34N 39°46' E 026°05'8 8.1
2014-Oct-21 05:33N 39°40' E 025°57'6 5.7
2014-Oct-21 04:33N 39°35' E 025°57'1 1.4
2014-Oct-21 03:33N 39°34' E 025°59'9 8.6
2014-Oct-21 02:31N 39°25' E 025°60'83 6.3
2014-Oct-20 13:18N 38°04' E 026°19'18 9.8
2014-Oct-20 11:31N 37°48' E 026°29'10 9.9
2014-Oct-20 10:33N 37°39' E 026°34'9 8.6
2014-Oct-20 09:29N 37°31' E 026°40'10 9.8
2014-Oct-20 08:28N 37°23' E 026°47'12 8.6
2014-Oct-20 07:04N 37°13' E 026°55'296 8.3
2014-Oct-18 19:22N 35°54' E 032°50'  

Dump ship's entire track history